Time;durP1;ratioP1;P1;durP2;ratioP2;P2;SDS_P1;SDS_P2;PMS_P1;PMS_P2;Temp;Humidity;BMP_temperature;BMP_pressure;BME280_temperature;BME280_humidity;BME280_pressure;Samples;Min_cycle;Max_cycle;Signal;HPM_P1;HPM_P2
2021/01/15 00:01:35;;;;;;;10.32;7.15;;;2.30;99.90;;;;;;5057337;28;20207;-82
2021/01/15 00:04:02;;;;;;;11.30;5.70;;;2.30;99.90;;;;;;5056523;28;20254;-80
2021/01/15 00:06:29;;;;;;;10.50;8.70;;;2.30;99.90;;;;;;5056477;28;20650;-81
2021/01/15 00:08:57;;;;;;;11.00;6.90;;;2.20;99.90;;;;;;5056346;28;20203;-82
2021/01/15 00:11:26;;;;;;;9.77;6.93;;;2.20;99.90;;;;;;5056740;28;20293;-81
2021/01/15 00:13:54;;;;;;;10.23;7.38;;;2.20;99.90;;;;;;5056481;28;20230;-81
2021/01/15 00:16:22;;;;;;;8.48;6.57;;;2.30;99.90;;;;;;5056728;28;20199;-82
2021/01/15 00:18:49;;;;;;;9.82;6.50;;;2.20;99.90;;;;;;5056897;28;20644;-82
2021/01/15 00:21:20;;;;;;;7.95;6.07;;;2.20;99.90;;;;;;5057078;28;20230;-82
2021/01/15 00:23:46;;;;;;;10.57;7.88;;;2.20;99.90;;;;;;5062587;28;20286;-81
2021/01/15 00:26:18;;;;;;;9.10;4.78;;;2.20;99.90;;;;;;5071398;28;20219;-82
2021/01/15 00:28:45;;;;;;;12.98;7.68;;;2.20;99.90;;;;;;5075257;28;20199;-81
2021/01/15 00:31:11;;;;;;;9.95;7.47;;;2.20;99.90;;;;;;5073697;28;20263;-80
2021/01/15 00:33:38;;;;;;;10.45;7.40;;;2.20;99.90;;;;;;5065183;28;20227;-80
2021/01/15 00:36:06;;;;;;;11.43;7.32;;;2.10;99.90;;;;;;5066406;28;20241;-80
2021/01/15 00:38:32;;;;;;;9.90;7.38;;;2.20;99.90;;;;;;5064599;28;20267;-81
2021/01/15 00:41:00;;;;;;;15.38;7.28;;;2.30;99.90;;;;;;5062394;28;20763;-81
2021/01/15 00:43:27;;;;;;;9.77;7.38;;;2.10;99.90;;;;;;5057410;28;20777;-80
2021/01/15 00:45:54;;;;;;;8.30;5.57;;;2.10;99.90;;;;;;5056196;28;20223;-81
2021/01/15 00:48:20;;;;;;;11.45;7.15;;;2.10;99.90;;;;;;5057389;28;20294;-80
2021/01/15 00:50:52;;;;;;;11.77;7.68;;;2.10;99.90;;;;;;5062036;28;20646;-82
2021/01/15 00:53:18;;;;;;;7.88;6.88;;;2.10;99.90;;;;;;5062758;28;20253;-82
2021/01/15 00:55:48;;;;;;;7.10;6.38;;;2.10;99.90;;;;;;5061759;28;20202;-81
2021/01/15 00:58:14;;;;;;;9.10;6.50;;;2.10;99.90;;;;;;5060718;28;20277;-81
2021/01/15 01:00:42;;;;;;;10.18;7.75;;;2.10;99.90;;;;;;5060514;28;20285;-82
2021/01/15 01:03:08;;;;;;;9.65;6.90;;;2.00;99.90;;;;;;5062314;28;20222;-82
2021/01/15 01:05:39;;;;;;;8.10;5.88;;;2.00;99.90;;;;;;5062268;28;20229;-81
2021/01/15 01:08:06;;;;;;;14.45;7.18;;;2.00;99.90;;;;;;5061574;28;20634;-81
2021/01/15 01:10:35;;;;;;;13.05;7.50;;;2.00;99.90;;;;;;5061495;28;20199;-82
2021/01/15 01:13:01;;;;;;;7.55;6.35;;;2.00;99.90;;;;;;5061716;28;20227;-81
2021/01/15 01:15:28;;;;;;;10.43;6.88;;;1.90;99.90;;;;;;5061930;28;20199;-82
2021/01/15 01:17:58;;;;;;;10.90;6.85;;;1.90;99.90;;;;;;5061188;28;20207;-82
2021/01/15 01:20:26;;;;;;;11.35;6.53;;;1.90;99.90;;;;;;5064067;28;20184;-82
2021/01/15 01:23:03;;;;;;;12.20;7.38;;;1.90;99.90;;;;;;5063631;28;20253;-81
2021/01/15 01:25:32;;;;;;;6.78;5.80;;;1.90;99.90;;;;;;5066032;28;20617;-81
2021/01/15 01:28:05;;;;;;;13.70;7.32;;;1.90;99.90;;;;;;5063892;28;20199;-81
2021/01/15 01:30:32;;;;;;;12.88;7.68;;;1.80;99.90;;;;;;5063022;28;20262;-81
2021/01/15 01:33:02;;;;;;;12.70;8.23;;;1.80;99.90;;;;;;5063913;28;20287;-82
2021/01/15 01:35:28;;;;;;;13.95;8.63;;;1.70;99.90;;;;;;5061108;28;20290;-82
2021/01/15 01:37:55;;;;;;;9.10;6.88;;;1.80;99.90;;;;;;5062912;28;20203;-83
2021/01/15 01:40:22;;;;;;;10.18;7.88;;;1.90;99.90;;;;;;5069440;28;20231;-82
2021/01/15 01:42:48;;;;;;;10.02;7.75;;;1.90;99.90;;;;;;5064356;28;20238;-81
2021/01/15 01:45:15;;;;;;;14.98;8.05;;;1.80;99.90;;;;;;5066882;28;20242;-82
2021/01/15 01:47:41;;;;;;;11.18;7.03;;;1.80;99.90;;;;;;5069646;28;20202;-80
2021/01/15 01:50:10;;;;;;;15.48;8.38;;;1.80;99.90;;;;;;5068374;28;20294;-82
2021/01/15 01:52:37;;;;;;;14.35;8.48;;;1.70;99.90;;;;;;5069686;28;20290;-79
2021/01/15 01:55:04;;;;;;;13.15;8.85;;;1.70;99.90;;;;;;5070384;28;20203;-82
2021/01/15 01:57:31;;;;;;;13.20;7.78;;;1.70;99.90;;;;;;5066977;28;20199;-81
2021/01/15 01:59:58;;;;;;;10.45;7.35;;;1.80;99.90;;;;;;5064005;28;20238;-81
2021/01/15 02:02:24;;;;;;;12.10;7.70;;;1.70;99.90;;;;;;5061551;28;20259;-82
2021/01/15 02:04:50;;;;;;;15.75;7.90;;;1.70;99.90;;;;;;5060585;28;20283;-81
2021/01/15 02:07:20;;;;;;;8.93;6.60;;;1.80;99.90;;;;;;5059510;28;20249;-81
2021/01/15 02:09:55;;;;;;;13.25;7.93;;;1.70;99.90;;;;;;5059460;28;20203;-81
2021/01/15 02:12:28;;;;;;;10.95;7.50;;;1.80;99.90;;;;;;5058815;28;20218;-81
2021/01/15 02:15:03;;;;;;;10.57;7.40;;;1.80;99.90;;;;;;5058927;28;20183;-81
2021/01/15 02:17:46;;;;;;;9.75;7.00;;;1.70;99.90;;;;;;5058334;28;20194;-81
2021/01/15 02:20:29;;;;;;;9.98;7.05;;;1.80;99.90;;;;;;5058008;28;20286;-80
2021/01/15 02:23:10;;;;;;;9.30;7.55;;;1.70;99.90;;;;;;5057967;28;20281;-81
2021/01/15 02:26:43;;;;;;;10.32;7.45;;;1.90;99.90;;;;;;5057603;28;20210;-81
2021/01/15 02:29:19;;;;;;;7.65;6.70;;;1.90;99.90;;;;;;5058052;28;20676;-82
2021/01/15 02:32:33;;;;;;;9.15;7.35;;;1.90;99.90;;;;;;5058142;28;20281;-82
2021/01/15 02:35:19;;;;;;;12.30;8.30;;;1.90;99.90;;;;;;5058251;28;20604;-81
2021/01/15 02:38:25;;;;;;;11.45;7.32;;;1.90;99.90;;;;;;5059002;28;20183;-82
2021/01/15 02:41:17;;;;;;;8.85;6.60;;;1.70;99.90;;;;;;5040776;28;20203;-81
2021/01/15 02:43:45;;;;;;;11.38;7.50;;;1.80;99.90;;;;;;5058131;28;20229;-81
2021/01/15 02:46:15;;;;;;;10.52;8.05;;;1.80;99.90;;;;;;5058631;28;20231;-81
2021/01/15 02:48:47;;;;;;;15.00;7.90;;;1.80;99.90;;;;;;5060499;28;20655;-80
2021/01/15 02:51:15;;;;;;;7.90;6.53;;;1.70;99.90;;;;;;5066032;28;20198;-81
2021/01/15 02:53:42;;;;;;;12.35;8.38;;;1.80;99.90;;;;;;5064014;28;20318;-80
2021/01/15 02:56:12;;;;;;;10.55;8.10;;;1.70;99.90;;;;;;5064390;28;20286;-81
2021/01/15 02:58:39;;;;;;;10.68;7.85;;;1.70;99.90;;;;;;5061152;28;20298;-81
2021/01/15 03:01:05;;;;;;;15.55;9.25;;;1.80;99.90;;;;;;5058300;28;20211;-81
2021/01/15 03:03:37;;;;;;;9.90;8.85;;;1.90;99.90;;;;;;5058494;28;20218;-81
2021/01/15 03:06:11;;;;;;;11.73;7.38;;;1.90;99.90;;;;;;5060471;28;20270;-81
2021/01/15 03:08:43;;;;;;;13.93;9.75;;;1.80;99.90;;;;;;5058118;28;20274;-81
2021/01/15 03:11:10;;;;;;;11.73;8.18;;;1.80;99.90;;;;;;5057082;28;20710;-82
2021/01/15 03:13:37;;;;;;;14.73;8.57;;;1.70;99.90;;;;;;5057896;28;20219;-81
2021/01/15 03:16:05;;;;;;;10.95;7.50;;;1.80;99.90;;;;;;5057202;28;20203;-80
2021/01/15 03:18:32;;;;;;;15.93;10.20;;;1.70;99.90;;;;;;5056708;28;20203;-80
2021/01/15 03:20:59;;;;;;;11.63;9.00;;;1.70;99.90;;;;;;5056829;28;20213;-82
2021/01/15 03:23:26;;;;;;;14.18;9.95;;;1.60;99.90;;;;;;5056711;28;20223;-81
2021/01/15 03:25:53;;;;;;;15.75;9.50;;;1.60;99.90;;;;;;5056044;28;20218;-81
2021/01/15 03:28:19;;;;;;;12.18;8.70;;;1.70;99.90;;;;;;5057981;28;20242;-81
2021/01/15 03:30:46;;;;;;;15.02;8.82;;;1.70;99.90;;;;;;5057800;28;20213;-80
2021/01/15 03:33:12;;;;;;;11.43;7.88;;;1.70;99.90;;;;;;5056358;28;20277;-81
2021/01/15 03:35:38;;;;;;;12.98;7.70;;;1.70;99.90;;;;;;5057151;28;20285;-81
2021/01/15 03:38:06;;;;;;;12.45;8.80;;;1.70;99.90;;;;;;5057912;28;20206;-80
2021/01/15 03:40:34;;;;;;;10.00;7.63;;;1.70;99.90;;;;;;5059579;28;20297;-81
2021/01/15 03:43:09;;;;;;;11.20;8.25;;;1.70;99.90;;;;;;5059724;28;20219;-81
2021/01/15 03:45:36;;;;;;;11.68;7.90;;;1.60;99.90;;;;;;5060471;28;20293;-81
2021/01/15 03:48:02;;;;;;;13.10;8.50;;;1.70;99.90;;;;;;5059064;28;20293;-81
2021/01/15 03:50:29;;;;;;;9.02;7.65;;;1.80;99.90;;;;;;5058694;28;20203;-81
2021/01/15 03:52:55;;;;;;;10.70;8.02;;;1.70;99.90;;;;;;5093114;22;20694;-80
2021/01/15 03:55:21;;;;;;;11.95;8.30;;;1.60;99.90;;;;;;5098666;28;20201;-80
2021/01/15 03:57:48;;;;;;;9.88;7.95;;;1.70;99.90;;;;;;5098056;28;20230;-81
2021/01/15 04:00:16;;;;;;;11.98;8.48;;;1.70;99.90;;;;;;5097846;28;20206;-80
2021/01/15 04:02:43;;;;;;;9.65;8.05;;;1.60;99.90;;;;;;5098219;28;20275;-80
2021/01/15 04:05:13;;;;;;;12.02;7.43;;;1.70;99.90;;;;;;5098366;28;20260;-81
2021/01/15 04:07:40;;;;;;;10.70;7.00;;;1.70;99.90;;;;;;5098757;28;20232;-80
2021/01/15 04:10:09;;;;;;;10.68;7.75;;;1.70;99.90;;;;;;5098524;28;20252;-80
2021/01/15 04:12:36;;;;;;;8.30;7.32;;;1.70;99.90;;;;;;5098918;28;20297;-80
2021/01/15 04:15:02;;;;;;;12.50;8.70;;;1.60;99.90;;;;;;5098702;28;20213;-80
2021/01/15 04:17:30;;;;;;;4.80;4.32;;;1.60;99.90;;;;;;5098693;28;20212;-80
2021/01/15 04:19:56;;;;;;;11.63;9.20;;;1.70;99.90;;;;;;5098956;28;20206;-80
2021/01/15 04:22:22;;;;;;;10.63;8.13;;;1.70;99.90;;;;;;5098975;28;20916;-81
2021/01/15 04:24:49;;;;;;;9.95;7.25;;;1.70;99.90;;;;;;5101966;28;20223;-81
2021/01/15 04:27:15;;;;;;;13.48;8.90;;;1.70;99.90;;;;;;5102355;28;20243;-81
2021/01/15 04:29:42;;;;;;;11.23;7.68;;;1.70;99.90;;;;;;5112243;28;20204;-80
2021/01/15 04:32:08;;;;;;;10.85;8.45;;;1.60;99.90;;;;;;5116707;28;20202;-80
2021/01/15 04:34:35;;;;;;;9.88;8.48;;;1.60;99.90;;;;;;5105937;28;20318;-81
2021/01/15 04:37:01;;;;;;;12.18;9.98;;;1.50;99.90;;;;;;5103828;28;20244;-81
2021/01/15 04:39:28;;;;;;;8.48;6.75;;;1.60;99.90;;;;;;5103902;28;20250;-81
2021/01/15 04:41:55;;;;;;;12.05;8.23;;;1.50;99.90;;;;;;5102109;28;20206;-80
2021/01/15 04:44:22;;;;;;;10.40;7.18;;;1.60;99.90;;;;;;5102331;28;20225;-80
2021/01/15 04:46:51;;;;;;;11.82;8.35;;;1.60;99.90;;;;;;5101938;28;20577;-80
2021/01/15 04:49:22;;;;;;;12.93;8.10;;;1.50;99.90;;;;;;5101125;28;20520;-80
2021/01/15 04:51:56;;;;;;;9.88;8.18;;;1.50;99.90;;;;;;5101695;28;20500;-80
2021/01/15 04:54:35;;;;;;;10.77;7.40;;;1.50;99.90;;;;;;5101535;28;20267;-80
2021/01/15 04:57:05;;;;;;;7.63;5.32;;;1.40;99.90;;;;;;5101790;28;20646;-81
2021/01/15 04:59:34;;;;;;;10.88;7.47;;;1.40;99.90;;;;;;5100978;28;20653;-80
2021/01/15 05:02:07;;;;;;;10.43;7.28;;;1.30;99.90;;;;;;5101761;28;20198;-80
2021/01/15 05:04:34;;;;;;;7.88;6.78;;;1.40;99.90;;;;;;5100654;28;20217;-80
2021/01/15 05:07:03;;;;;;;8.50;6.85;;;1.40;99.90;;;;;;5100877;28;20292;-81
2021/01/15 05:09:38;;;;;;;9.07;6.90;;;1.40;99.90;;;;;;5101575;28;20206;-81
2021/01/15 05:12:07;;;;;;;9.82;7.13;;;1.40;99.90;;;;;;5102452;28;20313;-81
2021/01/15 05:14:35;;;;;;;9.10;6.38;;;1.30;99.90;;;;;;5101160;28;20218;-80
2021/01/15 05:17:03;;;;;;;8.40;6.68;;;1.30;99.90;;;;;;5100568;28;20278;-80
2021/01/15 05:19:30;;;;;;;10.10;5.40;;;1.30;99.90;;;;;;5101143;28;20207;-80
2021/01/15 05:21:57;;;;;;;7.03;5.75;;;1.40;99.90;;;;;;5100368;28;20817;-81
2021/01/15 05:24:25;;;;;;;8.68;6.53;;;1.30;99.90;;;;;;5100316;28;20435;-80
2021/01/15 05:26:51;;;;;;;8.53;6.00;;;1.20;99.90;;;;;;5100109;28;20629;-81
2021/01/15 05:29:18;;;;;;;7.70;5.18;;;1.20;99.90;;;;;;5097563;28;20544;-79
2021/01/15 05:31:48;;;;;;;7.63;5.80;;;1.20;99.90;;;;;;5097414;28;20285;-79
2021/01/15 05:34:15;;;;;;;8.02;5.80;;;1.10;99.90;;;;;;5096063;28;20512;-79
2021/01/15 05:36:42;;;;;;;6.80;5.82;;;1.10;99.90;;;;;;5099133;28;20251;-79
2021/01/15 05:39:16;;;;;;;10.50;7.40;;;1.00;99.90;;;;;;5098356;28;20201;-79
2021/01/15 05:41:45;;;;;;;7.60;6.78;;;1.20;99.90;;;;;;5098800;28;20275;-79
2021/01/15 05:44:12;;;;;;;6.55;5.63;;;1.10;99.90;;;;;;5098643;28;20222;-79
2021/01/15 05:46:47;;;;;;;11.30;6.60;;;1.20;99.90;;;;;;5098824;28;20218;-79
2021/01/15 05:49:14;;;;;;;9.32;6.53;;;1.10;99.90;;;;;;5097989;28;20203;-80
2021/01/15 05:51:42;;;;;;;8.68;6.50;;;1.10;99.90;;;;;;5098648;28;20368;-78
2021/01/15 05:54:09;;;;;;;4.63;4.05;;;1.10;99.90;;;;;;5098659;28;20230;-79
2021/01/15 05:56:44;;;;;;;6.07;5.47;;;1.10;99.90;;;;;;5098578;28;20197;-78
2021/01/15 05:59:12;;;;;;;7.18;6.47;;;1.00;99.90;;;;;;5099004;28;20205;-79
2021/01/15 06:01:45;;;;;;;10.05;6.53;;;1.00;99.90;;;;;;5098706;28;20700;-80
2021/01/15 06:04:13;;;;;;;9.35;6.32;;;1.00;99.90;;;;;;5098321;28;20234;-80
2021/01/15 06:06:41;;;;;;;10.15;7.10;;;1.00;99.90;;;;;;5098864;28;20228;-79
2021/01/15 06:09:09;;;;;;;9.20;7.72;;;1.00;99.90;;;;;;5098846;28;20540;-78
2021/01/15 06:11:37;;;;;;;10.70;7.05;;;1.00;99.90;;;;;;5100304;28;20212;-80
2021/01/15 06:14:17;;;;;;;10.30;7.38;;;1.20;99.90;;;;;;5098586;28;20350;-79
2021/01/15 06:16:43;;;;;;;8.40;6.57;;;1.00;99.90;;;;;;5098735;28;20188;-80
2021/01/15 06:19:10;;;;;;;9.95;7.22;;;1.10;99.90;;;;;;5099824;28;20254;-80
2021/01/15 06:21:36;;;;;;;8.98;7.13;;;1.20;99.90;;;;;;5098592;28;20202;-79
2021/01/15 06:24:07;;;;;;;8.93;6.68;;;1.30;99.90;;;;;;5098030;28;20240;-79
2021/01/15 06:26:36;;;;;;;10.07;8.13;;;1.20;99.90;;;;;;5097809;28;20210;-79
2021/01/15 06:29:09;;;;;;;9.05;7.40;;;1.00;99.90;;;;;;5098392;28;20205;-78
2021/01/15 06:31:49;;;;;;;8.48;6.55;;;1.10;99.90;;;;;;5098167;28;20216;-79
2021/01/15 06:34:17;;;;;;;9.60;7.25;;;1.10;99.90;;;;;;5097291;28;20257;-80
2021/01/15 06:36:48;;;;;;;8.77;7.20;;;1.20;99.90;;;;;;5097863;28;20725;-79
2021/01/15 06:39:16;;;;;;;7.03;5.40;;;1.20;99.90;;;;;;5098397;28;20198;-79
2021/01/15 06:41:43;;;;;;;11.07;7.25;;;1.20;99.90;;;;;;5099764;28;20251;-80
2021/01/15 06:44:12;;;;;;;10.13;7.97;;;1.00;99.90;;;;;;5098655;28;20705;-79
2021/01/15 06:46:43;;;;;;;8.32;5.90;;;1.10;99.90;;;;;;5098043;28;20213;-80
2021/01/15 06:49:15;;;;;;;8.05;6.35;;;1.10;99.90;;;;;;5099407;28;20590;-80
2021/01/15 06:51:54;;;;;;;11.20;7.50;;;1.20;99.90;;;;;;5099470;28;20190;-81
2021/01/15 06:54:26;;;;;;;10.18;7.72;;;1.20;99.90;;;;;;5098580;28;20233;-79
2021/01/15 06:57:20;;;;;;;9.68;7.20;;;1.20;99.90;;;;;;5099348;28;20193;-79
2021/01/15 06:59:51;;;;;;;7.38;6.30;;;1.10;99.90;;;;;;5075767;28;20269;-79
2021/01/15 07:02:42;;;;;;;7.55;6.05;;;1.00;99.90;;;;;;5098884;28;20190;-79
2021/01/15 07:05:13;;;;;;;7.32;6.40;;;1.00;99.90;;;;;;5097833;28;20222;-78
2021/01/15 07:07:42;;;;;;;9.68;6.50;;;1.10;99.90;;;;;;5097716;28;20714;-78
2021/01/15 07:10:09;;;;;;;10.13;7.10;;;1.10;99.90;;;;;;5097905;28;20285;-80
2021/01/15 07:12:41;;;;;;;7.07;4.28;;;1.20;99.90;;;;;;5098533;28;20300;-80
2021/01/15 07:15:14;;;;;;;10.13;5.97;;;1.20;99.90;;;;;;5097874;28;20707;-80
2021/01/15 07:17:46;;;;;;;10.75;7.75;;;1.10;99.90;;;;;;5098702;28;20622;-80
2021/01/15 07:20:14;;;;;;;8.68;6.45;;;1.10;99.90;;;;;;5098505;28;20186;-80
2021/01/15 07:22:47;;;;;;;8.48;5.53;;;1.00;99.90;;;;;;5098981;28;20314;-80
2021/01/15 07:25:14;;;;;;;8.07;6.45;;;1.10;99.90;;;;;;5098457;28;20266;-80
2021/01/15 07:27:41;;;;;;;9.60;6.78;;;1.10;99.90;;;;;;5098320;28;20205;-80
2021/01/15 07:30:15;;;;;;;7.60;6.50;;;1.10;99.90;;;;;;5098502;28;20574;-79
2021/01/15 07:32:48;;;;;;;10.32;7.60;;;1.00;99.90;;;;;;5096925;28;20224;-79
2021/01/15 07:35:16;;;;;;;8.90;6.85;;;1.10;99.90;;;;;;5098995;28;20693;-79
2021/01/15 07:37:43;;;;;;;7.35;6.60;;;1.10;99.90;;;;;;5106280;28;20206;-80
2021/01/15 07:40:15;;;;;;;8.88;7.50;;;1.00;99.90;;;;;;5107428;28;20205;-79
2021/01/15 07:42:44;;;;;;;7.53;6.32;;;1.00;99.90;;;;;;5106230;28;20642;-79
2021/01/15 07:45:50;;;;;;;7.60;6.40;;;1.10;99.90;;;;;;5102144;28;20217;-80
2021/01/15 07:48:17;;;;;;;10.60;7.40;;;1.20;99.90;;;;;;5100401;28;20197;-80
2021/01/15 07:50:45;;;;;;;8.90;6.93;;;1.20;99.90;;;;;;5105415;28;20201;-80
2021/01/15 07:53:40;;;;;;;8.45;7.10;;;1.20;99.90;;;;;;5104317;28;20244;-80
2021/01/15 07:56:07;;;;;;;10.48;8.13;;;1.20;99.90;;;;;;5110283;28;20257;-80
2021/01/15 07:58:47;;;;;;;10.00;7.10;;;1.30;99.90;;;;;;5110157;28;20761;-80
2021/01/15 08:01:16;;;;;;;8.30;5.97;;;1.30;99.90;;;;;;5105804;28;20216;-79
2021/01/15 08:03:45;;;;;;;8.07;7.25;;;1.20;99.90;;;;;;5105553;28;20589;-80
2021/01/15 08:06:12;;;;;;;10.27;7.50;;;1.20;99.90;;;;;;5104380;28;20645;-79
2021/01/15 08:08:57;;;;;;;12.50;7.68;;;1.20;99.90;;;;;;5104215;28;20233;-79
2021/01/15 08:11:24;;;;;;;8.52;6.72;;;1.30;99.90;;;;;;5113641;28;20190;-79
2021/01/15 08:14:09;;;;;;;7.30;6.55;;;1.30;99.90;;;;;;5112198;28;20235;-80
2021/01/15 08:16:36;;;;;;;5.80;4.90;;;1.30;99.90;;;;;;5109279;28;20236;-80
2021/01/15 08:19:06;;;;;;;8.07;6.95;;;1.30;99.90;;;;;;5101207;28;20225;-80
2021/01/15 08:21:33;;;;;;;8.90;6.68;;;1.20;99.90;;;;;;5101596;28;20190;-80
2021/01/15 08:24:02;;;;;;;8.95;6.38;;;1.20;99.90;;;;;;5099571;28;20225;-79
2021/01/15 08:26:40;;;;;;;9.13;6.20;;;1.20;99.90;;;;;;5099908;28;20286;-80
2021/01/15 08:29:07;;;;;;;7.85;6.95;;;1.10;99.90;;;;;;5101137;28;20226;-79
2021/01/15 08:31:34;;;;;;;7.88;6.90;;;1.10;99.90;;;;;;5099314;28;20678;-79
2021/01/15 08:34:08;;;;;;;6.00;5.20;;;1.20;99.90;;;;;;5100326;28;20236;-79
2021/01/15 08:36:35;;;;;;;7.40;6.32;;;1.30;99.90;;;;;;5115140;28;20235;-80
2021/01/15 08:39:02;;;;;;;10.80;8.13;;;1.20;99.90;;;;;;5102301;28;20201;-80
2021/01/15 08:41:28;;;;;;;10.85;8.15;;;1.20;99.90;;;;;;5099057;28;20201;-81
2021/01/15 08:43:55;;;;;;;9.38;8.05;;;1.20;99.90;;;;;;5097895;28;20226;-80
2021/01/15 08:46:23;;;;;;;11.10;7.82;;;1.10;99.90;;;;;;5097967;28;20225;-81
2021/01/15 08:48:50;;;;;;;10.60;8.70;;;1.10;99.90;;;;;;5098499;28;20201;-80
2021/01/15 08:51:20;;;;;;;10.85;7.57;;;1.10;99.90;;;;;;5097888;28;20292;-80
2021/01/15 08:56:38;;;;;;;6.32;5.57;;;1.10;99.90;;;;;;5093029;28;20182;-80
2021/01/15 08:59:06;;;;;;;8.63;7.13;;;1.00;99.90;;;;;;5098567;28;20292;-80
2021/01/15 09:01:33;;;;;;;12.27;6.07;;;1.00;99.90;;;;;;5097495;28;20212;-79
2021/01/15 09:04:02;;;;;;;12.68;7.78;;;0.90;99.90;;;;;;5097721;28;20232;-79
2021/01/15 09:06:30;;;;;;;11.45;8.15;;;0.80;99.90;;;;;;5097459;28;20246;-80
2021/01/15 09:09:00;;;;;;;8.55;7.28;;;0.90;99.90;;;;;;5100305;28;20240;-80
2021/01/15 09:11:31;;;;;;;8.07;7.20;;;0.90;99.90;;;;;;5103747;28;20210;-80
2021/01/15 09:13:58;;;;;;;9.27;7.15;;;1.00;99.90;;;;;;5102333;28;20278;-81
2021/01/15 09:16:26;;;;;;;10.20;7.15;;;1.00;99.90;;;;;;5103483;28;20229;-80
2021/01/15 09:18:53;;;;;;;12.57;8.52;;;1.00;99.90;;;;;;5103482;28;20292;-80
2021/01/15 09:21:20;;;;;;;12.10;7.85;;;1.00;99.90;;;;;;5103404;28;20205;-80
2021/01/15 09:23:47;;;;;;;11.70;9.13;;;1.00;99.90;;;;;;5103350;28;20781;-80
2021/01/15 09:26:16;;;;;;;11.93;8.70;;;0.90;99.90;;;;;;5103364;28;20224;-80
2021/01/15 09:28:42;;;;;;;18.42;9.60;;;0.90;99.90;;;;;;5102767;28;20210;-81
2021/01/15 09:31:08;;;;;;;16.38;8.35;;;0.90;99.90;;;;;;5110264;28;20224;-79
2021/01/15 09:33:46;;;;;;;13.32;8.45;;;0.80;99.90;;;;;;5115039;28;20225;-81
2021/01/15 09:36:18;;;;;;;15.10;9.20;;;0.80;99.90;;;;;;5108546;28;20182;-80
2021/01/15 09:38:44;;;;;;;9.38;5.75;;;0.80;99.90;;;;;;5106547;28;20667;-79
2021/01/15 09:41:12;;;;;;;10.35;8.20;;;0.70;99.90;;;;;;5107263;28;20206;-79
2021/01/15 09:43:38;;;;;;;11.57;7.10;;;0.80;99.90;;;;;;5106531;28;20351;-79
2021/01/15 09:46:04;;;;;;;8.00;6.75;;;0.80;99.90;;;;;;5105611;28;20260;-79
2021/01/15 09:48:31;;;;;;;9.60;8.05;;;0.80;99.90;;;;;;5107225;28;20198;-79
2021/01/15 09:50:59;;;;;;;11.70;8.63;;;0.80;99.90;;;;;;5109351;28;20225;-79
2021/01/15 09:53:26;;;;;;;14.85;9.15;;;0.80;99.90;;;;;;5109812;28;20232;-79
2021/01/15 09:55:53;;;;;;;12.48;9.10;;;0.80;99.90;;;;;;5109106;28;20305;-79
2021/01/15 09:58:20;;;;;;;11.52;8.50;;;0.90;99.90;;;;;;5107760;28;20209;-80
2021/01/15 10:00:47;;;;;;;8.82;6.70;;;0.90;99.90;;;;;;5108200;28;20198;-79
2021/01/15 10:03:13;;;;;;;12.60;8.93;;;0.80;99.90;;;;;;5108254;28;20221;-80
2021/01/15 10:05:40;;;;;;;12.65;8.32;;;0.80;99.90;;;;;;5105017;28;20307;-80
2021/01/15 10:08:07;;;;;;;9.25;7.15;;;0.70;99.90;;;;;;5102841;28;20198;-80
2021/01/15 10:10:33;;;;;;;13.02;8.93;;;0.70;99.90;;;;;;5104127;28;20227;-80
2021/01/15 10:13:00;;;;;;;12.00;8.35;;;0.70;99.90;;;;;;5102971;28;20261;-80
2021/01/15 10:15:27;;;;;;;10.27;8.45;;;0.80;99.90;;;;;;5101806;28;20207;-79
2021/01/15 10:17:53;;;;;;;14.02;7.93;;;0.70;99.90;;;;;;5102008;28;20201;-79
2021/01/15 10:20:25;;;;;;;9.80;7.22;;;0.70;99.90;;;;;;5100339;28;20197;-79
2021/01/15 10:22:51;;;;;;;11.77;8.73;;;0.70;99.90;;;;;;5100067;28;20229;-79
2021/01/15 10:25:18;;;;;;;11.32;8.07;;;0.70;99.90;;;;;;5099743;28;20770;-79
2021/01/15 10:27:44;;;;;;;13.73;9.13;;;0.60;99.90;;;;;;5099996;28;20261;-79
2021/01/15 10:30:11;;;;;;;8.80;6.63;;;0.60;99.90;;;;;;5099048;28;20616;-79
2021/01/15 10:32:38;;;;;;;12.13;7.28;;;0.60;99.90;;;;;;5098283;28;20224;-79
2021/01/15 10:35:08;;;;;;;10.10;7.00;;;0.50;99.90;;;;;;5098529;28;20224;-79
2021/01/15 10:37:35;;;;;;;12.07;7.80;;;0.50;99.90;;;;;;5099188;28;20198;-79
2021/01/15 10:40:02;;;;;;;14.25;8.57;;;0.50;99.90;;;;;;5101355;28;20227;-79
2021/01/15 10:42:28;;;;;;;9.45;7.47;;;0.50;99.90;;;;;;5103889;28;20658;-79
2021/01/15 10:44:54;;;;;;;13.75;8.43;;;0.50;99.90;;;;;;5100916;28;20206;-79
2021/01/15 10:47:21;;;;;;;11.10;8.52;;;0.60;99.90;;;;;;5100145;28;20335;-80
2021/01/15 10:49:48;;;;;;;11.00;7.95;;;0.60;99.90;;;;;;5099579;28;20770;-80
2021/01/15 10:52:14;;;;;;;6.22;5.50;;;0.70;99.90;;;;;;5103592;28;20285;-79
2021/01/15 10:54:41;;;;;;;8.10;5.60;;;0.60;99.90;;;;;;5103725;28;20201;-79
2021/01/15 10:57:08;;;;;;;8.10;7.10;;;0.60;99.90;;;;;;5103618;28;20201;-80
2021/01/15 10:59:34;;;;;;;7.93;6.50;;;0.50;99.90;;;;;;5102365;28;20644;-81
2021/01/15 11:02:03;;;;;;;12.68;8.30;;;0.60;99.90;;;;;;5093322;28;20202;-80
2021/01/15 11:04:30;;;;;;;8.10;6.78;;;0.50;99.90;;;;;;5099300;28;20229;-80
2021/01/15 11:06:57;;;;;;;11.30;8.40;;;0.60;99.90;;;;;;5100312;28;20308;-80
2021/01/15 11:09:25;;;;;;;11.55;8.73;;;0.60;99.90;;;;;;5102080;28;20269;-81
2021/01/15 11:11:52;;;;;;;9.13;7.50;;;0.70;99.90;;;;;;5100115;28;20212;-80
2021/01/15 11:14:19;;;;;;;11.23;7.72;;;0.80;99.90;;;;;;5100416;28;20244;-80
2021/01/15 11:16:45;;;;;;;9.75;6.97;;;0.90;99.90;;;;;;5103020;28;20339;-80
2021/01/15 11:19:12;;;;;;;7.57;6.72;;;0.80;99.90;;;;;;5099454;28;20310;-80
2021/01/15 11:21:39;;;;;;;9.90;7.55;;;0.70;99.90;;;;;;5099995;28;20288;-81
2021/01/15 11:24:07;;;;;;;8.95;7.30;;;0.70;99.90;;;;;;5101054;28;20245;-81
2021/01/15 11:26:33;;;;;;;12.40;7.80;;;0.70;99.90;;;;;;5099403;28;20213;-81
2021/01/15 11:29:01;;;;;;;13.05;6.70;;;0.60;99.90;;;;;;5100028;28;20223;-79
2021/01/15 11:31:28;;;;;;;9.05;5.50;;;0.60;99.90;;;;;;5099014;28;20287;-80
2021/01/15 11:33:55;;;;;;;10.75;6.70;;;0.50;99.90;;;;;;5099405;28;20233;-81
2021/01/15 11:36:23;;;;;;;9.38;6.57;;;0.50;99.90;;;;;;5102459;28;20670;-80
2021/01/15 11:38:50;;;;;;;11.20;6.93;;;0.50;99.90;;;;;;5100027;28;20229;-80
2021/01/15 11:41:18;;;;;;;7.65;6.65;;;0.50;99.90;;;;;;5100725;28;20202;-80
2021/01/15 11:43:45;;;;;;;10.43;6.78;;;0.50;99.90;;;;;;5099419;28;20263;-80
2021/01/15 11:46:12;;;;;;;10.77;6.90;;;0.50;99.90;;;;;;5100252;28;20694;-80
2021/01/15 11:48:39;;;;;;;9.45;7.20;;;0.50;99.90;;;;;;5103158;28;20251;-83
2021/01/15 11:51:09;;;;;;;13.02;9.23;;;0.60;99.90;;;;;;5102287;28;20681;-80
2021/01/15 11:53:36;;;;;;;11.10;8.13;;;0.60;99.90;;;;;;5106296;28;20251;-79
2021/01/15 11:56:04;;;;;;;13.85;9.88;;;0.60;99.90;;;;;;5109484;28;20254;-79
2021/01/15 11:58:31;;;;;;;14.15;10.80;;;0.60;99.90;;;;;;5109455;28;20206;-80
2021/01/15 12:00:58;;;;;;;26.48;16.20;;;0.60;99.90;;;;;;5100355;28;20221;-80
2021/01/15 12:03:25;;;;;;;28.70;16.42;;;0.60;99.90;;;;;;5100725;28;20306;-80
2021/01/15 12:05:52;;;;;;;13.57;9.98;;;0.40;99.90;;;;;;5100247;28;20228;-80
2021/01/15 12:08:19;;;;;;;13.25;10.25;;;0.40;99.90;;;;;;5100612;28;20202;-81
2021/01/15 12:10:47;;;;;;;12.85;7.85;;;0.50;99.90;;;;;;5102652;28;20203;-80
2021/01/15 12:13:13;;;;;;;14.55;10.25;;;0.50;99.90;;;;;;5101309;28;20217;-80
2021/01/15 12:15:40;;;;;;;15.50;9.52;;;0.50;99.90;;;;;;5102157;28;20288;-79
2021/01/15 12:18:07;;;;;;;10.40;8.43;;;0.60;99.90;;;;;;5108221;28;20198;-80
2021/01/15 12:20:37;;;;;;;12.25;9.07;;;0.60;99.90;;;;;;5114664;28;20227;-80
2021/01/15 12:23:03;;;;;;;11.18;8.40;;;0.50;99.90;;;;;;5112089;28;20225;-80
2021/01/15 12:25:30;;;;;;;10.55;8.52;;;0.50;99.90;;;;;;5113964;28;20285;-80
2021/01/15 12:27:56;;;;;;;13.95;8.73;;;0.60;99.90;;;;;;5090608;28;20208;-80
2021/01/15 12:30:23;;;;;;;13.75;10.30;;;0.60;99.90;;;;;;5114444;28;20225;-80
2021/01/15 12:32:51;;;;;;;11.75;8.02;;;0.70;99.90;;;;;;5113006;28;20225;-80
2021/01/15 12:35:17;;;;;;;10.10;6.90;;;0.70;99.90;;;;;;5112099;28;20593;-79
2021/01/15 12:37:44;;;;;;;8.80;6.95;;;0.60;99.90;;;;;;5112428;28;20208;-80
2021/01/15 12:40:12;;;;;;;8.35;7.53;;;0.50;99.90;;;;;;5113886;28;20272;-80
2021/01/15 12:42:39;;;;;;;13.07;5.97;;;0.50;99.90;;;;;;5112540;28;20286;-80
2021/01/15 12:45:07;;;;;;;7.72;5.57;;;0.50;99.90;;;;;;5114718;28;20190;-79
2021/01/15 12:47:34;;;;;;;11.43;7.35;;;0.50;99.90;;;;;;5117437;28;20256;-79
2021/01/15 12:50:01;;;;;;;14.82;8.15;;;0.50;99.90;;;;;;5117003;28;20197;-80
2021/01/15 12:52:27;;;;;;;9.93;8.38;;;0.40;99.90;;;;;;5116295;28;20229;-80
2021/01/15 12:54:54;;;;;;;9.15;7.95;;;0.50;99.90;;;;;;5113666;28;20246;-78
2021/01/15 12:57:20;;;;;;;9.80;7.38;;;0.50;99.90;;;;;;5114869;28;20220;-80
2021/01/15 12:59:46;;;;;;;8.68;6.50;;;0.50;99.90;;;;;;5109620;28;20307;-80
2021/01/15 13:02:13;;;;;;;9.65;7.38;;;0.60;99.90;;;;;;5109277;28;20225;-79
2021/01/15 13:04:39;;;;;;;9.25;6.95;;;0.60;99.90;;;;;;5110497;28;20292;-80